Time;durP1;ratioP1;P1;durP2;ratioP2;P2;SDS_P1;SDS_P2;PMS_P1;PMS_P2;Temp;Humidity;BMP_temperature;BMP_pressure;BME280_temperature;BME280_humidity;BME280_pressure;Samples;Min_cycle;Max_cycle;Signal;HPM_P1;HPM_P2
2022/05/31 00:02:01;;;;;;;10.53;5.80;;;;;;;;;;5093580;28;20173;-75
2022/05/31 00:04:28;;;;;;;7.72;6.60;;;;;;;;;;5093213;28;20415;-75
2022/05/31 00:06:54;;;;;;;8.32;6.75;;;;;;;;;;5093467;28;20176;-76
2022/05/31 00:09:20;;;;;;;9.10;6.40;;;;;;;;;;5093347;28;20261;-76
2022/05/31 00:11:46;;;;;;;8.63;6.80;;;;;;;;;;5093521;28;20455;-75
2022/05/31 00:14:13;;;;;;;8.32;7.47;;;;;;;;;;5093251;28;20802;-77
2022/05/31 00:16:39;;;;;;;11.85;7.15;;;;;;;;;;5092265;28;20286;-77
2022/05/31 00:19:05;;;;;;;9.35;6.60;;;;;;;;;;5093333;28;20174;-75
2022/05/31 00:21:40;;;;;;;11.63;7.32;;;;;;;;;;5093329;28;20669;-75
2022/05/31 00:24:07;;;;;;;12.18;7.65;;;;;;;;;;5093012;28;20601;-75
2022/05/31 00:26:33;;;;;;;10.65;7.55;;;;;;;;;;5093390;28;20643;-75
2022/05/31 00:28:59;;;;;;;9.25;7.80;;;;;;;;;;5093353;28;20599;-75
2022/05/31 00:31:25;;;;;;;7.90;6.87;;;;;;;;;;5091878;28;20220;-75
2022/05/31 00:33:51;;;;;;;7.93;7.13;;;;;;;;;;5093033;28;20884;-77
2022/05/31 00:36:17;;;;;;;9.57;7.83;;;;;;;;;;5093239;28;20411;-75
2022/05/31 00:38:43;;;;;;;9.40;7.70;;;;;;;;;;5093308;28;20442;-75
2022/05/31 00:41:23;;;;;;;10.02;8.27;;;;;;;;;;5093325;28;20407;-75
2022/05/31 00:43:49;;;;;;;9.70;7.78;;;;;;;;;;5092927;28;20165;-75
2022/05/31 00:46:15;;;;;;;12.40;8.65;;;;;;;;;;5093368;28;20179;-75
2022/05/31 00:48:55;;;;;;;12.10;8.90;;;;;;;;;;5093350;28;20262;-74
2022/05/31 00:51:22;;;;;;;13.82;8.40;;;;;;;;;;5093256;28;20414;-76
2022/05/31 00:53:58;;;;;;;14.13;8.50;;;;;;;;;;5092929;28;20191;-74
2022/05/31 00:56:26;;;;;;;11.45;8.73;;;;;;;;;;5093090;28;20636;-76
2022/05/31 00:59:01;;;;;;;14.77;10.27;;;;;;;;;;5093235;28;20176;-76
2022/05/31 01:01:28;;;;;;;13.77;8.80;;;;;;;;;;5092950;28;20171;-76
2022/05/31 01:03:55;;;;;;;13.80;8.50;;;;;;;;;;5092836;28;20680;-76
2022/05/31 01:06:20;;;;;;;9.45;8.35;;;;;;;;;;5093325;28;20179;-77
2022/05/31 01:08:47;;;;;;;12.33;9.13;;;;;;;;;;5093104;28;20176;-75
2022/05/31 01:11:14;;;;;;;14.60;9.30;;;;;;;;;;5093094;28;20406;-75
2022/05/31 01:13:41;;;;;;;11.93;8.93;;;;;;;;;;5091352;28;20782;-76
2022/05/31 01:16:08;;;;;;;10.95;9.25;;;;;;;;;;5093108;28;20169;-76
2022/05/31 01:18:35;;;;;;;11.40;8.65;;;;;;;;;;5091752;28;20696;-74
2022/05/31 01:21:01;;;;;;;9.10;8.23;;;;;;;;;;5092886;28;20173;-76
2022/05/31 01:23:28;;;;;;;8.50;7.00;;;;;;;;;;5092422;28;20516;-75
2022/05/31 01:26:01;;;;;;;13.20;8.18;;;;;;;;;;5092690;28;20809;-74
2022/05/31 01:28:27;;;;;;;7.88;7.07;;;;;;;;;;5092894;28;20181;-76
2022/05/31 01:31:02;;;;;;;7.50;6.80;;;;;;;;;;5092830;28;20192;-76
2022/05/31 01:33:31;;;;;;;9.40;7.65;;;;;;;;;;5094171;28;20402;-75
2022/05/31 01:36:07;;;;;;;8.60;7.70;;;;;;;;;;5096353;28;20214;-75
2022/05/31 01:38:39;;;;;;;9.43;7.82;;;;;;;;;;5096404;28;20258;-75
2022/05/31 01:41:28;;;;;;;14.02;8.20;;;;;;;;;;5096413;28;20191;-75
2022/05/31 01:43:56;;;;;;;10.40;8.02;;;;;;;;;;5085226;28;20193;-75
2022/05/31 01:46:30;;;;;;;10.68;8.35;;;;;;;;;;5096372;28;20631;-76
2022/05/31 01:48:56;;;;;;;14.02;8.43;;;;;;;;;;5096350;28;20164;-76
2022/05/31 01:51:23;;;;;;;12.15;8.23;;;;;;;;;;5094957;28;20641;-77
2022/05/31 01:53:49;;;;;;;11.98;7.38;;;;;;;;;;5095863;28;20179;-75
2022/05/31 01:56:15;;;;;;;8.48;7.53;;;;;;;;;;5096409;28;20183;-77
2022/05/31 01:58:46;;;;;;;8.20;7.07;;;;;;;;;;5096326;28;20685;-75
2022/05/31 02:01:12;;;;;;;8.00;7.20;;;;;;;;;;5096205;28;20403;-75
2022/05/31 02:03:40;;;;;;;9.90;7.33;;;;;;;;;;5095681;28;20172;-75
2022/05/31 02:06:22;;;;;;;9.82;7.70;;;;;;;;;;5095874;28;20482;-75
2022/05/31 02:08:48;;;;;;;7.68;6.45;;;;;;;;;;5096052;28;20180;-77
2022/05/31 02:11:14;;;;;;;8.33;6.67;;;;;;;;;;5095801;28;20226;-76
2022/05/31 02:13:40;;;;;;;10.77;7.17;;;;;;;;;;5095581;28;20426;-74
2022/05/31 02:16:06;;;;;;;10.20;7.47;;;;;;;;;;5095596;28;20410;-76
2022/05/31 02:21:16;;;;;;;9.55;7.43;;;;;;;;;;5094926;28;20441;-74
2022/05/31 02:23:42;;;;;;;10.43;7.60;;;;;;;;;;5095315;28;20625;-76
2022/05/31 02:26:08;;;;;;;11.40;6.60;;;;;;;;;;5095526;28;20403;-76
2022/05/31 02:28:34;;;;;;;13.30;7.57;;;;;;;;;;5095516;28;20415;-76
2022/05/31 02:31:00;;;;;;;7.83;7.00;;;;;;;;;;5095423;28;20921;-75
2022/05/31 02:33:26;;;;;;;8.07;6.53;;;;;;;;;;5094970;28;20417;-76
2022/05/31 02:35:52;;;;;;;14.13;7.40;;;;;;;;;;5095280;28;20785;-76
2022/05/31 02:38:18;;;;;;;10.10;7.87;;;;;;;;;;5094982;28;20551;-75
2022/05/31 02:40:44;;;;;;;9.23;7.32;;;;;;;;;;5095302;28;20410;-74
2022/05/31 02:43:10;;;;;;;9.50;7.57;;;;;;;;;;5095059;28;20323;-77
2022/05/31 02:45:36;;;;;;;7.53;6.73;;;;;;;;;;5095057;28;20422;-77
2022/05/31 02:48:02;;;;;;;10.80;6.15;;;;;;;;;;5095176;28;20413;-74
2022/05/31 02:50:28;;;;;;;9.60;7.10;;;;;;;;;;5095002;28;20172;-76
2022/05/31 02:52:54;;;;;;;9.60;8.03;;;;;;;;;;5093744;28;20895;-75
2022/05/31 02:55:20;;;;;;;8.40;7.10;;;;;;;;;;5094995;28;20426;-75
2022/05/31 02:57:46;;;;;;;8.07;6.07;;;;;;;;;;5094952;28;20497;-76
2022/05/31 03:00:14;;;;;;;7.90;6.20;;;;;;;;;;5094979;28;20402;-77
2022/05/31 03:02:40;;;;;;;8.55;6.85;;;;;;;;;;5094745;28;20422;-75
2022/05/31 03:05:07;;;;;;;7.10;6.40;;;;;;;;;;5094433;28;20276;-75
2022/05/31 03:07:33;;;;;;;6.75;5.30;;;;;;;;;;5094845;28;20160;-75
2022/05/31 03:09:59;;;;;;;6.70;5.90;;;;;;;;;;5093804;28;20172;-76
2022/05/31 03:12:26;;;;;;;6.53;5.07;;;;;;;;;;5094880;28;20177;-75
2022/05/31 03:14:55;;;;;;;7.45;5.88;;;;;;;;;;5094309;28;20483;-76
2022/05/31 03:17:28;;;;;;;10.55;5.80;;;;;;;;;;5094607;28;20223;-75
2022/05/31 03:19:58;;;;;;;7.97;5.60;;;;;;;;;;5094722;28;20176;-75
2022/05/31 03:22:27;;;;;;;6.90;4.75;;;;;;;;;;5094753;28;20256;-76
2022/05/31 03:25:05;;;;;;;10.23;5.45;;;;;;;;;;5094063;28;20280;-75
2022/05/31 03:27:31;;;;;;;18.48;5.50;;;;;;;;;;5094396;28;20176;-75
2022/05/31 03:29:58;;;;;;;10.10;6.07;;;;;;;;;;5094405;28;20176;-75
2022/05/31 03:32:24;;;;;;;9.65;5.40;;;;;;;;;;5094115;28;20196;-75
2022/05/31 03:34:50;;;;;;;6.65;5.38;;;;;;;;;;5092539;28;20280;-75
2022/05/31 03:37:18;;;;;;;8.10;4.90;;;;;;;;;;5094106;28;20204;-76
2022/05/31 03:39:44;;;;;;;10.00;5.93;;;;;;;;;;5094458;28;20659;-75
2022/05/31 03:42:10;;;;;;;8.80;4.90;;;;;;;;;;5093007;28;20177;-76
2022/05/31 03:44:36;;;;;;;6.43;5.30;;;;;;;;;;5092433;28;20509;-76
2022/05/31 03:47:03;;;;;;;8.47;5.27;;;;;;;;;;5094023;28;20193;-75
2022/05/31 03:49:30;;;;;;;5.20;4.40;;;;;;;;;;5094065;28;20438;-76
2022/05/31 03:51:56;;;;;;;5.70;4.90;;;;;;;;;;5093993;28;20179;-77
2022/05/31 03:54:22;;;;;;;6.23;5.23;;;;;;;;;;5093523;28;20208;-75
2022/05/31 03:56:48;;;;;;;5.00;4.07;;;;;;;;;;5093255;28;20457;-74
2022/05/31 03:59:14;;;;;;;7.23;4.90;;;;;;;;;;5094146;28;20179;-77
2022/05/31 04:01:40;;;;;;;5.90;4.10;;;;;;;;;;5093956;28;20926;-76
2022/05/31 04:04:06;;;;;;;6.63;4.90;;;;;;;;;;5092152;28;20431;-77
2022/05/31 04:06:35;;;;;;;6.15;5.10;;;;;;;;;;5093931;28;20490;-76
2022/05/31 04:09:01;;;;;;;7.18;4.25;;;;;;;;;;5093670;28;20290;-75
2022/05/31 04:11:27;;;;;;;4.82;4.28;;;;;;;;;;5092488;28;20188;-76
2022/05/31 04:13:54;;;;;;;8.10;5.22;;;;;;;;;;5093363;28;20172;-75
2022/05/31 04:16:20;;;;;;;12.73;3.92;;;;;;;;;;5093564;28;20192;-77
2022/05/31 04:18:46;;;;;;;8.13;4.90;;;;;;;;;;5093644;28;20304;-78
2022/05/31 04:21:14;;;;;;;6.93;4.88;;;;;;;;;;5093334;28;20883;-78
2022/05/31 04:23:59;;;;;;;6.97;4.35;;;;;;;;;;5093170;28;20515;-76
2022/05/31 04:26:32;;;;;;;8.73;5.10;;;;;;;;;;5093341;28;20181;-75
2022/05/31 04:28:58;;;;;;;6.70;5.22;;;;;;;;;;5093403;28;20172;-74
2022/05/31 04:31:25;;;;;;;9.90;5.80;;;;;;;;;;5093115;28;20199;-77
2022/05/31 04:33:51;;;;;;;4.95;4.53;;;;;;;;;;5091923;28;20196;-77
2022/05/31 04:36:18;;;;;;;5.57;4.93;;;;;;;;;;5093388;28;20227;-76
2022/05/31 04:38:44;;;;;;;8.68;5.93;;;;;;;;;;5093179;28;20565;-75
2022/05/31 04:41:22;;;;;;;10.82;5.30;;;;;;;;;;5093104;28;20229;-75
2022/05/31 04:43:48;;;;;;;6.25;4.95;;;;;;;;;;5092894;28;20222;-77
2022/05/31 04:46:16;;;;;;;7.88;5.20;;;;;;;;;;5093188;28;20562;-76
2022/05/31 04:48:42;;;;;;;6.97;5.03;;;;;;;;;;5093260;28;20183;-75
2022/05/31 04:51:09;;;;;;;6.68;5.20;;;;;;;;;;5093148;28;20278;-76
2022/05/31 04:53:35;;;;;;;7.50;5.47;;;;;;;;;;5092815;28;20242;-74
2022/05/31 04:56:02;;;;;;;5.85;5.22;;;;;;;;;;5093089;28;20279;-75
2022/05/31 04:58:28;;;;;;;7.15;5.82;;;;;;;;;;5092866;28;20258;-73
2022/05/31 05:00:54;;;;;;;6.75;5.03;;;;;;;;;;5093343;28;20529;-77
2022/05/31 05:03:20;;;;;;;6.27;5.30;;;;;;;;;;5091552;28;20173;-76
2022/05/31 05:05:46;;;;;;;7.57;5.17;;;;;;;;;;5093103;28;20438;-76
2022/05/31 05:08:12;;;;;;;6.93;4.80;;;;;;;;;;5094432;28;20890;-76
2022/05/31 05:10:38;;;;;;;7.28;4.70;;;;;;;;;;5097024;28;20449;-75
2022/05/31 05:13:04;;;;;;;7.35;4.60;;;;;;;;;;5096573;28;20180;-74
2022/05/31 05:15:30;;;;;;;6.40;5.35;;;;;;;;;;5096945;28;20204;-77
2022/05/31 05:17:55;;;;;;;6.40;4.50;;;;;;;;;;5096940;28;20673;-74
2022/05/31 05:20:22;;;;;;;7.17;4.40;;;;;;;;;;5095763;28;20769;-75
2022/05/31 05:22:48;;;;;;;5.03;4.53;;;;;;;;;;5096819;28;20402;-75
2022/05/31 05:25:14;;;;;;;6.30;4.88;;;;;;;;;;5096447;28;20201;-77
2022/05/31 05:27:40;;;;;;;6.90;4.70;;;;;;;;;;5096690;28;20191;-76
2022/05/31 05:32:53;;;;;;;7.03;4.38;;;;;;;;;;5096807;28;20525;-78
2022/05/31 05:35:19;;;;;;;5.40;4.90;;;;;;;;;;5095192;28;20594;-77
2022/05/31 05:37:45;;;;;;;5.70;4.43;;;;;;;;;;5096357;28;20251;-75
2022/05/31 05:40:11;;;;;;;6.10;4.17;;;;;;;;;;5096452;28;20204;-75
2022/05/31 05:42:40;;;;;;;5.00;3.92;;;;;;;;;;5095111;28;20436;-75
2022/05/31 05:45:07;;;;;;;9.73;4.40;;;;;;;;;;5095867;28;20241;-77
2022/05/31 05:47:33;;;;;;;6.30;4.47;;;;;;;;;;5096248;28;20583;-76
2022/05/31 05:49:59;;;;;;;5.53;4.33;;;;;;;;;;5094991;28;20200;-76
2022/05/31 05:52:25;;;;;;;3.87;3.53;;;;;;;;;;5096107;28;20415;-75
2022/05/31 05:54:51;;;;;;;6.20;4.00;;;;;;;;;;5094608;28;20454;-78
2022/05/31 05:57:17;;;;;;;5.57;3.97;;;;;;;;;;5095971;28;20454;-77
2022/05/31 05:59:42;;;;;;;5.83;3.57;;;;;;;;;;5095910;28;20402;-76
2022/05/31 06:02:16;;;;;;;4.90;3.50;;;;;;;;;;5096063;28;20566;-75
2022/05/31 06:04:51;;;;;;;4.20;3.20;;;;;;;;;;5095719;28;20499;-75
2022/05/31 06:07:24;;;;;;;8.70;3.53;;;;;;;;;;5095732;28;20402;-77
2022/05/31 06:09:54;;;;;;;8.03;4.27;;;;;;;;;;5095854;28;20410;-75
2022/05/31 06:12:25;;;;;;;3.00;2.60;;;;;;;;;;5095997;28;20414;-76
2022/05/31 06:14:56;;;;;;;4.40;2.93;;;;;;;;;;5095257;28;20437;-77
2022/05/31 06:17:25;;;;;;;4.87;3.60;;;;;;;;;;5094320;28;21012;-77
2022/05/31 06:19:51;;;;;;;5.10;3.77;;;;;;;;;;5095079;28;20414;-77
2022/05/31 06:22:19;;;;;;;4.07;3.50;;;;;;;;;;5095644;28;20402;-76
2022/05/31 06:24:45;;;;;;;7.90;3.30;;;;;;;;;;5095194;28;20465;-74
2022/05/31 06:27:11;;;;;;;8.63;3.20;;;;;;;;;;5095568;28;20440;-77
2022/05/31 06:29:37;;;;;;;5.43;3.63;;;;;;;;;;5095463;28;20410;-77
2022/05/31 06:32:03;;;;;;;5.53;3.00;;;;;;;;;;5093966;28;20437;-76
2022/05/31 06:34:29;;;;;;;5.33;3.00;;;;;;;;;;5093709;28;20446;-76
2022/05/31 06:37:06;;;;;;;4.60;3.27;;;;;;;;;;5095269;28;20437;-76
2022/05/31 06:39:33;;;;;;;3.93;2.43;;;;;;;;;;5095234;28;20406;-76
2022/05/31 06:41:59;;;;;;;7.40;3.40;;;;;;;;;;5095123;28;20414;-77
2022/05/31 06:44:25;;;;;;;5.33;2.77;;;;;;;;;;5094731;28;20426;-76
2022/05/31 06:46:51;;;;;;;6.60;3.10;;;;;;;;;;5095328;28;20393;-75
2022/05/31 06:49:17;;;;;;;4.13;3.23;;;;;;;;;;5093777;28;20777;-78
2022/05/31 06:57:14;;;;;;;6.40;4.40;;;;;;;;;;5095386;28;20887;-77
2022/05/31 06:59:40;;;;;;;7.20;3.50;;;;;;;;;;5095044;28;20484;-77
2022/05/31 07:02:06;;;;;;;4.70;3.07;;;;;;;;;;5093692;28;20455;-76
2022/05/31 07:04:33;;;;;;;5.10;3.33;;;;;;;;;;5094384;28;20434;-76
2022/05/31 07:06:59;;;;;;;6.80;3.60;;;;;;;;;;5093775;28;20441;-77
2022/05/31 07:09:25;;;;;;;5.07;3.43;;;;;;;;;;5094835;28;20393;-75
2022/05/31 07:11:51;;;;;;;4.90;3.10;;;;;;;;;;5094737;28;20390;-77
2022/05/31 07:14:17;;;;;;;3.80;2.80;;;;;;;;;;5094052;28;20435;-77
2022/05/31 07:16:42;;;;;;;4.93;3.70;;;;;;;;;;5093514;28;20538;-77
2022/05/31 07:19:08;;;;;;;7.13;3.33;;;;;;;;;;5094611;28;20414;-77
2022/05/31 07:21:35;;;;;;;8.80;3.83;;;;;;;;;;5094528;28;20459;-76
2022/05/31 07:24:00;;;;;;;5.13;3.37;;;;;;;;;;5094060;28;20407;-77
2022/05/31 07:26:26;;;;;;;7.63;3.87;;;;;;;;;;5094214;28;20418;-78
2022/05/31 07:28:52;;;;;;;6.90;3.43;;;;;;;;;;5094453;28;20506;-77
2022/05/31 07:31:19;;;;;;;5.40;3.50;;;;;;;;;;5093449;28;20435;-77
2022/05/31 07:33:45;;;;;;;4.83;3.03;;;;;;;;;;5093822;28;20422;-77
2022/05/31 07:36:11;;;;;;;7.70;3.07;;;;;;;;;;5094280;28;20484;-78
2022/05/31 07:38:37;;;;;;;6.57;3.00;;;;;;;;;;5092749;28;21061;-78
2022/05/31 07:41:03;;;;;;;4.93;3.57;;;;;;;;;;5094209;28;20381;-76
2022/05/31 07:43:29;;;;;;;5.37;2.73;;;;;;;;;;5092372;28;20808;-78
2022/05/31 07:46:05;;;;;;;5.40;2.83;;;;;;;;;;5092731;28;20426;-77
2022/05/31 07:48:31;;;;;;;3.77;2.43;;;;;;;;;;5093821;28;20818;-76
2022/05/31 07:50:57;;;;;;;3.27;2.90;;;;;;;;;;5092634;28;20410;-76
2022/05/31 07:53:23;;;;;;;6.77;3.20;;;;;;;;;;5093604;28;20538;-78
2022/05/31 07:55:56;;;;;;;3.20;2.77;;;;;;;;;;5093785;28;20413;-77
2022/05/31 07:58:31;;;;;;;5.90;2.90;;;;;;;;;;5093622;28;20795;-77
2022/05/31 08:00:57;;;;;;;3.83;2.97;;;;;;;;;;5092574;28;20421;-78
2022/05/31 08:03:23;;;;;;;4.37;3.07;;;;;;;;;;5093373;28;20418;-77
2022/05/31 08:05:49;;;;;;;4.07;2.80;;;;;;;;;;5093655;28;20406;-78
2022/05/31 08:08:15;;;;;;;4.30;3.17;;;;;;;;;;5092430;28;20509;-76
2022/05/31 08:10:41;;;;;;;8.93;2.77;;;;;;;;;;5092320;28;20394;-77
2022/05/31 08:13:07;;;;;;;3.47;2.93;;;;;;;;;;5093587;28;20415;-76
2022/05/31 08:15:33;;;;;;;4.80;3.50;;;;;;;;;;5093418;28;20408;-76
2022/05/31 08:17:59;;;;;;;4.10;3.43;;;;;;;;;;5093515;28;20793;-75
2022/05/31 08:20:25;;;;;;;5.03;3.57;;;;;;;;;;5093693;28;20378;-78
2022/05/31 08:22:51;;;;;;;3.37;3.07;;;;;;;;;;5092139;28;20422;-76
2022/05/31 08:25:17;;;;;;;7.90;3.63;;;;;;;;;;5093388;28;20422;-77
2022/05/31 08:27:43;;;;;;;4.40;3.17;;;;;;;;;;5093568;28;20752;-77
2022/05/31 08:30:10;;;;;;;14.00;3.93;;;;;;;;;;5093335;28;20396;-78
2022/05/31 08:32:36;;;;;;;7.13;3.40;;;;;;;;;;5093335;28;20430;-76
2022/05/31 08:35:03;;;;;;;7.73;3.87;;;;;;;;;;5092842;28;20435;-77
2022/05/31 08:37:30;;;;;;;6.90;3.77;;;;;;;;;;5093251;28;20874;-77
2022/05/31 08:39:56;;;;;;;6.33;3.10;;;;;;;;;;5093347;28;20389;-75
2022/05/31 08:42:23;;;;;;;4.93;3.10;;;;;;;;;;5095031;28;20388;-77
2022/05/31 08:45:00;;;;;;;5.10;3.47;;;;;;;;;;5096992;28;20405;-77
2022/05/31 08:47:41;;;;;;;5.10;3.30;;;;;;;;;;5097429;28;20406;-76
2022/05/31 08:53:10;;;;;;;6.20;3.70;;;;;;;;;;5096770;28;20452;-79
2022/05/31 08:58:33;;;;;;;5.43;3.20;;;;;;;;;;5097371;28;20440;-76
2022/05/31 09:01:00;;;;;;;6.53;3.73;;;;;;;;;;5097421;28;20932;-77
2022/05/31 09:03:30;;;;;;;5.70;3.60;;;;;;;;;;5096759;28;20384;-77
2022/05/31 09:06:07;;;;;;;6.60;3.73;;;;;;;;;;5097625;28;20720;-76
2022/05/31 09:08:39;;;;;;;5.17;3.90;;;;;;;;;;5097018;28;20422;-78
2022/05/31 09:11:08;;;;;;;6.80;3.80;;;;;;;;;;5097003;28;20406;-76
2022/05/31 09:13:51;;;;;;;6.83;3.53;;;;;;;;;;5092100;28;20400;-78
2022/05/31 09:16:35;;;;;;;8.60;3.70;;;;;;;;;;5084637;28;20375;-76
2022/05/31 09:19:04;;;;;;;5.10;2.90;;;;;;;;;;5087186;28;20433;-79
2022/05/31 09:21:38;;;;;;;4.40;3.50;;;;;;;;;;5087247;28;20406;-78
2022/05/31 09:24:04;;;;;;;9.70;3.97;;;;;;;;;;5086816;28;20389;-77
2022/05/31 09:26:30;;;;;;;12.30;4.40;;;;;;;;;;5085402;28;20415;-75
2022/05/31 09:29:06;;;;;;;4.90;3.50;;;;;;;;;;5086733;28;20725;-77
2022/05/31 09:31:53;;;;;;;8.33;4.33;;;;;;;;;;5074998;28;20480;-78
2022/05/31 09:34:34;;;;;;;9.17;4.67;;;;;;;;;;5074604;28;20499;-77
2022/05/31 09:37:07;;;;;;;9.10;3.80;;;;;;;;;;5076271;28;20995;-79
2022/05/31 09:39:51;;;;;;;8.47;4.50;;;;;;;;;;5076116;28;20491;-78
2022/05/31 09:42:17;;;;;;;6.40;3.37;;;;;;;;;;5076119;28;20431;-76
2022/05/31 09:44:47;;;;;;;9.40;3.90;;;;;;;;;;5075651;28;20397;-77
2022/05/31 09:47:15;;;;;;;6.03;3.53;;;;;;;;;;5083660;28;20393;-76
2022/05/31 09:49:43;;;;;;;10.07;4.03;;;;;;;;;;5088385;28;20419;-78
2022/05/31 09:52:33;;;;;;;10.17;3.77;;;;;;;;;;5089313;28;20399;-76
2022/05/31 09:57:56;;;;;;;5.57;2.73;;;;;;;;;;5084900;28;20483;-74
2022/05/31 10:00:22;;;;;;;8.00;3.03;;;;;;;;;;5090294;28;20411;-77
2022/05/31 10:03:11;;;;;;;5.67;3.43;;;;;;;;;;5096044;28;20776;-75
2022/05/31 10:05:38;;;;;;;5.53;3.80;;;;;;;;;;5085215;28;20834;-75
2022/05/31 10:08:12;;;;;;;10.73;3.40;;;;;;;;;;5095874;28;20446;-77
2022/05/31 10:10:43;;;;;;;6.93;3.83;;;;;;;;;;5091336;28;20446;-75
2022/05/31 10:13:10;;;;;;;8.30;3.50;;;;;;;;;;5073964;28;20424;-76
2022/05/31 10:15:42;;;;;;;5.73;3.03;;;;;;;;;;5075586;28;20406;-75
2022/05/31 10:18:10;;;;;;;8.50;3.13;;;;;;;;;;5075569;28;20434;-76
2022/05/31 10:20:36;;;;;;;6.37;3.40;;;;;;;;;;5075778;28;20440;-76
2022/05/31 10:23:04;;;;;;;5.33;3.33;;;;;;;;;;5075084;28;20439;-77
2022/05/31 10:25:30;;;;;;;5.63;3.47;;;;;;;;;;5075323;28;20423;-75
2022/05/31 10:27:58;;;;;;;6.70;3.80;;;;;;;;;;5075279;28;20445;-76
2022/05/31 10:30:24;;;;;;;10.80;3.43;;;;;;;;;;5075087;28;20412;-75
2022/05/31 10:32:52;;;;;;;6.60;3.17;;;;;;;;;;5075041;28;20431;-75
2022/05/31 10:35:18;;;;;;;5.07;2.90;;;;;;;;;;5075103;28;20438;-76
2022/05/31 10:37:50;;;;;;;4.47;2.83;;;;;;;;;;5074855;28;20552;-76
2022/05/31 10:40:22;;;;;;;3.13;2.80;;;;;;;;;;5075120;28;20411;-76
2022/05/31 10:42:49;;;;;;;6.87;3.10;;;;;;;;;;5075143;28;20487;-76
2022/05/31 10:45:27;;;;;;;4.03;2.63;;;;;;;;;;5074554;28;20436;-76
2022/05/31 10:47:56;;;;;;;3.60;1.90;;;;;;;;;;5074793;28;20400;-74
2022/05/31 10:50:33;;;;;;;3.90;2.20;;;;;;;;;;5073566;28;20495;-75
2022/05/31 10:53:07;;;;;;;4.80;2.60;;;;;;;;;;5074551;28;20411;-76
2022/05/31 10:55:47;;;;;;;5.60;2.60;;;;;;;;;;5074759;28;20832;-76
2022/05/31 10:58:32;;;;;;;8.30;2.53;;;;;;;;;;5074614;28;20462;-75
2022/05/31 11:01:10;;;;;;;4.17;2.47;;;;;;;;;;5074723;28;20401;-77
2022/05/31 11:03:48;;;;;;;3.27;2.10;;;;;;;;;;5074307;28;20422;-76
2022/05/31 11:06:17;;;;;;;3.30;2.23;;;;;;;;;;5073472;28;20776;-77
2022/05/31 11:11:45;;;;;;;4.17;2.47;;;;;;;;;;5074538;28;20441;-74
2022/05/31 11:14:23;;;;;;;3.33;2.00;;;;;;;;;;5073816;28;20441;-75
2022/05/31 11:17:08;;;;;;;3.43;2.37;;;;;;;;;;5074319;28;20762;-75
2022/05/31 11:19:51;;;;;;;4.37;2.30;;;;;;;;;;5074199;28;20406;-76
2022/05/31 11:22:33;;;;;;;4.43;2.30;;;;;;;;;;5072839;28;20418;-75
2022/05/31 11:24:59;;;;;;;3.40;2.50;;;;;;;;;;5072544;28;20430;-75
2022/05/31 11:27:28;;;;;;;3.40;2.60;;;;;;;;;;5074071;28;20404;-77
2022/05/31 11:30:06;;;;;;;3.00;2.47;;;;;;;;;;5074382;28;20405;-76
2022/05/31 11:32:37;;;;;;;4.57;2.17;;;;;;;;;;5073857;28;20482;-74
2022/05/31 11:35:11;;;;;;;3.90;2.27;;;;;;;;;;5073864;28;20438;-75
2022/05/31 11:37:45;;;;;;;4.40;2.53;;;;;;;;;;5074106;28;20917;-76
2022/05/31 11:40:26;;;;;;;2.83;2.23;;;;;;;;;;5072658;28;20418;-75
2022/05/31 11:43:21;;;;;;;4.33;2.43;;;;;;;;;;5073725;28;20812;-77
2022/05/31 11:46:02;;;;;;;2.70;2.00;;;;;;;;;;5036905;28;20442;-77
2022/05/31 11:48:40;;;;;;;3.50;2.03;;;;;;;;;;5072374;28;20874;-75
2022/05/31 11:51:13;;;;;;;3.40;2.40;;;;;;;;;;5073733;28;20953;-74
2022/05/31 11:53:39;;;;;;;2.90;2.03;;;;;;;;;;5073411;28;20416;-75
2022/05/31 11:56:08;;;;;;;2.50;2.30;;;;;;;;;;5073545;28;20484;-75
2022/05/31 11:58:34;;;;;;;4.60;2.60;;;;;;;;;;5072403;28;20462;-76
2022/05/31 12:01:16;;;;;;;5.07;2.50;;;;;;;;;;5073784;28;20893;-77
2022/05/31 12:04:01;;;;;;;3.60;2.67;;;;;;;;;;5073253;28;20486;-74
2022/05/31 12:06:31;;;;;;;4.13;2.57;;;;;;;;;;5073503;28;20496;-75
2022/05/31 12:08:58;;;;;;;5.30;2.87;;;;;;;;;;5073235;28;20400;-74
2022/05/31 12:11:27;;;;;;;4.93;2.50;;;;;;;;;;5072160;28;20960;-77
2022/05/31 12:13:53;;;;;;;3.40;2.40;;;;;;;;;;5072987;28;20849;-75
2022/05/31 12:16:20;;;;;;;3.87;2.33;;;;;;;;;;5072876;28;20411;-76
2022/05/31 12:18:57;;;;;;;3.23;2.70;;;;;;;;;;5073081;28;20471;-76
2022/05/31 12:21:30;;;;;;;4.47;2.33;;;;;;;;;;5073363;28;20395;-75
2022/05/31 12:24:15;;;;;;;4.60;2.27;;;;;;;;;;5072837;28;20883;-77
2022/05/31 12:26:41;;;;;;;3.70;2.00;;;;;;;;;;5071737;28;20419;-75
2022/05/31 12:29:07;;;;;;;3.53;2.20;;;;;;;;;;5073356;28;20414;-75
2022/05/31 12:31:34;;;;;;;4.03;2.20;;;;;;;;;;5071755;28;20431;-76
2022/05/31 12:34:19;;;;;;;3.50;2.30;;;;;;;;;;5072752;28;20407;-77
2022/05/31 12:37:03;;;;;;;4.30;2.90;;;;;;;;;;5072893;28;20461;-76
2022/05/31 12:39:33;;;;;;;4.80;2.63;;;;;;;;;;5073047;28;20407;-75
2022/05/31 12:42:11;;;;;;;8.67;3.90;;;;;;;;;;5073039;28;20400;-75
2022/05/31 12:44:37;;;;;;;4.63;2.40;;;;;;;;;;5072494;28;20394;-75
2022/05/31 12:47:17;;;;;;;4.10;2.53;;;;;;;;;;5072861;28;20478;-75
2022/05/31 12:50:04;;;;;;;4.30;2.10;;;;;;;;;;5073173;28;20374;-75
2022/05/31 12:55:28;;;;;;;4.13;1.80;;;;;;;;;;5064171;28;20489;-76
2022/05/31 12:58:33;;;;;;;2.60;2.17;;;;;;;;;;5072705;28;20959;-76
2022/05/31 13:01:07;;;;;;;5.63;1.80;;;;;;;;;;5072657;28;21016;-75
2022/05/31 13:03:33;;;;;;;4.80;2.20;;;;;;;;;;5072487;28;20399;-75
2022/05/31 13:05:59;;;;;;;6.10;1.60;;;;;;;;;;5072838;28;20451;-75
2022/05/31 13:08:44;;;;;;;2.73;2.00;;;;;;;;;;5072694;28;20378;-74
2022/05/31 13:19:41;;;;;;;3.10;1.67;;;;;;;;;;5073120;28;20457;-76
2022/05/31 13:22:08;;;;;;;3.23;2.00;;;;;;;;;;5072803;28;20875;-75
2022/05/31 13:24:38;;;;;;;5.13;2.03;;;;;;;;;;5072349;28;20469;-76
2022/05/31 13:27:08;;;;;;;3.93;2.90;;;;;;;;;;5072541;28;20407;-76
2022/05/31 13:29:36;;;;;;;2.60;1.67;;;;;;;;;;5074542;28;20469;-75
2022/05/31 13:32:02;;;;;;;2.10;1.87;;;;;;;;;;5074912;28;20442;-75
2022/05/31 13:34:31;;;;;;;1.90;1.50;;;;;;;;;;5075859;28;20492;-74
2022/05/31 13:36:58;;;;;;;2.87;1.77;;;;;;;;;;5076198;28;20403;-76
2022/05/31 13:39:25;;;;;;;2.33;1.57;;;;;;;;;;5076133;28;20431;-75
2022/05/31 13:41:58;;;;;;;6.40;2.50;;;;;;;;;;5076143;28;21018;-77
2022/05/31 13:44:33;;;;;;;3.30;1.90;;;;;;;;;;5075767;28;20431;-76
2022/05/31 13:47:02;;;;;;;4.50;2.07;;;;;;;;;;5074841;28;20468;-75
2022/05/31 13:49:34;;;;;;;2.63;1.80;;;;;;;;;;5075975;28;20510;-75
2022/05/31 13:52:01;;;;;;;3.53;1.73;;;;;;;;;;5076030;28;20498;-75
2022/05/31 13:54:29;;;;;;;3.30;1.70;;;;;;;;;;5075558;28;20502;-76
2022/05/31 13:56:59;;;;;;;4.33;1.60;;;;;;;;;;5075817;28;20412;-75
2022/05/31 13:59:32;;;;;;;2.63;1.40;;;;;;;;;;5075809;28;20406;-75
2022/05/31 14:01:58;;;;;;;2.20;1.83;;;;;;;;;;5075769;28;20408;-76
2022/05/31 14:04:30;;;;;;;1.70;1.60;;;;;;;;;;5074394;28;20896;-77
2022/05/31 14:06:57;;;;;;;2.67;1.90;;;;;;;;;;5076136;28;20430;-76
2022/05/31 14:09:25;;;;;;;2.80;1.77;;;;;;;;;;5075725;28;20387;-75
2022/05/31 14:11:58;;;;;;;3.50;1.60;;;;;;;;;;5075749;28;20415;-76
2022/05/31 14:14:27;;;;;;;3.10;1.50;;;;;;;;;;5075229;28;20447;-75
2022/05/31 14:16:57;;;;;;;1.90;1.60;;;;;;;;;;5074257;28;20412;-76
2022/05/31 14:19:24;;;;;;;2.63;1.73;;;;;;;;;;5075522;28;20404;-74
2022/05/31 14:21:52;;;;;;;2.50;1.70;;;;;;;;;;5075412;28;20431;-76
2022/05/31 14:24:23;;;;;;;3.67;1.90;;;;;;;;;;5075047;28;20474;-75
2022/05/31 14:26:51;;;;;;;2.60;1.60;;;;;;;;;;5075361;28;20412;-75
2022/05/31 14:29:23;;;;;;;2.03;1.53;;;;;;;;;;5075426;28;20537;-75
2022/05/31 14:32:05;;;;;;;3.30;2.00;;;;;;;;;;5074823;28;20427;-76
2022/05/31 14:34:44;;;;;;;2.30;1.70;;;;;;;;;;5074634;28;20427;-74
2022/05/31 14:37:11;;;;;;;3.53;1.83;;;;;;;;;;5075036;28;20451;-75
2022/05/31 14:40:07;;;;;;;1.97;1.47;;;;;;;;;;5074202;28;20408;-76
2022/05/31 14:42:41;;;;;;;2.83;1.53;;;;;;;;;;5037919;28;20897;-74
2022/05/31 14:45:12;;;;;;;5.93;1.87;;;;;;;;;;5074381;28;20431;-74
2022/05/31 14:47:39;;;;;;;1.93;1.50;;;;;;;;;;5074726;28;20407;-74
2022/05/31 14:50:25;;;;;;;5.50;1.60;;;;;;;;;;5074799;28;20422;-74
2022/05/31 14:52:52;;;;;;;3.80;1.60;;;;;;;;;;5074604;28;20495;-75
2022/05/31 14:55:21;;;;;;;2.27;1.70;;;;;;;;;;5074572;28;20831;-74
2022/05/31 15:00:39;;;;;;;2.27;1.80;;;;;;;;;;5073849;28;20489;-73
2022/05/31 15:03:13;;;;;;;3.20;1.80;;;;;;;;;;5090186;28;20442;-75
2022/05/31 15:05:39;;;;;;;3.93;1.90;;;;;;;;;;5094584;28;20427;-76
2022/05/31 15:08:05;;;;;;;2.53;1.57;;;;;;;;;;5088028;28;20411;-75
2022/05/31 15:10:33;;;;;;;2.87;1.80;;;;;;;;;;5094648;28;20744;-76
2022/05/31 15:21:15;;;;;;;3.33;1.80;;;;;;;;;;5094889;28;20402;-74
2022/05/31 15:23:41;;;;;;;4.70;2.30;;;;;;;;;;5094038;28;20406;-76
2022/05/31 15:26:11;;;;;;;4.13;2.10;;;;;;;;;;5094121;28;20406;-76
2022/05/31 15:28:36;;;;;;;5.70;2.50;;;;;;;;;;5094313;28;20769;-76
2022/05/31 15:31:04;;;;;;;4.47;1.83;;;;;;;;;;5094198;28;20427;-76
2022/05/31 15:33:30;;;;;;;3.70;2.00;;;;;;;;;;5093865;28;20481;-76
2022/05/31 15:35:56;;;;;;;6.00;2.10;;;;;;;;;;5093947;28;20552;-76
2022/05/31 15:38:25;;;;;;;3.67;2.17;;;;;;;;;;5094168;28;21013;-77
2022/05/31 15:40:51;;;;;;;4.23;2.20;;;;;;;;;;5094255;28;20386;-75